sensor_id;sensor_type;location;lat;lon;timestamp;P1;durP1;ratioP1;P2;durP2;ratioP2
74483;SDS011;62942;52.462;10.846;2023-02-08T00:00:29;48.1;;;109;;
74483;SDS011;62942;52.462;10.846;2023-02-08T00:01:39;48.8;;;107.1;;
74483;SDS011;62942;52.462;10.846;2023-02-08T00:02:49;49.7;;;114.1;;
74483;SDS011;62942;52.462;10.846;2023-02-08T00:03:59;49.7;;;112.8;;
74483;SDS011;62942;52.462;10.846;2023-02-08T00:05:09;50.4;;;114.8;;
74483;SDS011;62942;52.462;10.846;2023-02-08T00:06:19;51;;;116;;
74483;SDS011;62942;52.462;10.846;2023-02-08T00:07:29;50.9;;;119.8;;
74483;SDS011;62942;52.462;10.846;2023-02-08T00:08:39;49.9;;;112;;
74483;SDS011;62942;52.462;10.846;2023-02-08T00:09:49;51.4;;;119.4;;
74483;SDS011;62942;52.462;10.846;2023-02-08T00:10:49;50.7;;;118.2;;
74483;SDS011;62942;52.462;10.846;2023-02-08T00:11:59;51.3;;;119;;
74483;SDS011;62942;52.462;10.846;2023-02-08T00:13:09;51.3;;;116.9;;
74483;SDS011;62942;52.462;10.846;2023-02-08T00:14:19;52.4;;;119.6;;
74483;SDS011;62942;52.462;10.846;2023-02-08T00:15:29;52.3;;;120.6;;
74483;SDS011;62942;52.462;10.846;2023-02-08T00:16:39;52.1;;;120.3;;
74483;SDS011;62942;52.462;10.846;2023-02-08T00:17:49;52;;;122.1;;
74483;SDS011;62942;52.462;10.846;2023-02-08T00:18:49;52;;;118.5;;
74483;SDS011;62942;52.462;10.846;2023-02-08T00:19:49;52.8;;;118.9;;
74483;SDS011;62942;52.462;10.846;2023-02-08T00:20:59;52.3;;;118.7;;
74483;SDS011;62942;52.462;10.846;2023-02-08T00:22:09;52.3;;;121.4;;
74483;SDS011;62942;52.462;10.846;2023-02-08T00:23:19;52.1;;;120;;
74483;SDS011;62942;52.462;10.846;2023-02-08T00:24:29;51.6;;;119;;
74483;SDS011;62942;52.462;10.846;2023-02-08T00:25:29;51.3;;;116.8;;
74483;SDS011;62942;52.462;10.846;2023-02-08T00:26:39;52.1;;;117.6;;
74483;SDS011;62942;52.462;10.846;2023-02-08T00:27:39;52;;;118;;
74483;SDS011;62942;52.462;10.846;2023-02-08T00:28:39;52;;;116;;
74483;SDS011;62942;52.462;10.846;2023-02-08T00:29:49;51.4;;;118.4;;
74483;SDS011;62942;52.462;10.846;2023-02-08T00:30:59;51.6;;;118.7;;
74483;SDS011;62942;52.462;10.846;2023-02-08T00:32:09;52.3;;;117.6;;
74483;SDS011;62942;52.462;10.846;2023-02-08T00:33:19;51.6;;;115.1;;
74483;SDS011;62942;52.462;10.846;2023-02-08T00:34:29;52.2;;;120.3;;
74483;SDS011;62942;52.462;10.846;2023-02-08T00:35:29;51.9;;;119.9;;
74483;SDS011;62942;52.462;10.846;2023-02-08T00:36:29;52.2;;;117.2;;
74483;SDS011;62942;52.462;10.846;2023-02-08T00:37:39;51.8;;;120.3;;
74483;SDS011;62942;52.462;10.846;2023-02-08T00:38:49;51.5;;;119.2;;
74483;SDS011;62942;52.462;10.846;2023-02-08T00:39:49;52.7;;;119.2;;
74483;SDS011;62942;52.462;10.846;2023-02-08T00:40:59;52.4;;;118;;
74483;SDS011;62942;52.462;10.846;2023-02-08T00:42:09;52.9;;;122.2;;
74483;SDS011;62942;52.462;10.846;2023-02-08T00:43:20;52.7;;;121.1;;
74483;SDS011;62942;52.462;10.846;2023-02-08T00:44:29;53.4;;;124.3;;
74483;SDS011;62942;52.462;10.846;2023-02-08T00:45:39;53.8;;;126.3;;
74483;SDS011;62942;52.462;10.846;2023-02-08T00:46:49;52.7;;;119.5;;
74483;SDS011;62942;52.462;10.846;2023-02-08T00:47:49;52.4;;;122.6;;
74483;SDS011;62942;52.462;10.846;2023-02-08T00:48:49;53.8;;;125.4;;
74483;SDS011;62942;52.462;10.846;2023-02-08T00:49:59;53.4;;;124.8;;
74483;SDS011;62942;52.462;10.846;2023-02-08T00:51:10;54.6;;;127.2;;
74483;SDS011;62942;52.462;10.846;2023-02-08T00:52:19;55.7;;;133.7;;
74483;SDS011;62942;52.462;10.846;2023-02-08T00:53:29;55.9;;;131.9;;
74483;SDS011;62942;52.462;10.846;2023-02-08T00:54:39;55.5;;;132.2;;
74483;SDS011;62942;52.462;10.846;2023-02-08T00:55:49;57.1;;;137.6;;
74483;SDS011;62942;52.462;10.846;2023-02-08T00:56:49;55;;;130.9;;
74483;SDS011;62942;52.462;10.846;2023-02-08T00:57:59;55.3;;;134;;
74483;SDS011;62942;52.462;10.846;2023-02-08T00:58:59;56.7;;;134.1;;
74483;SDS011;62942;52.462;10.846;2023-02-08T01:00:09;56.4;;;135.3;;
74483;SDS011;62942;52.462;10.846;2023-02-08T01:01:09;56.3;;;131.4;;
74483;SDS011;62942;52.462;10.846;2023-02-08T01:02:19;57.7;;;138.4;;
74483;SDS011;62942;52.462;10.846;2023-02-08T01:03:29;56.4;;;136.2;;
74483;SDS011;62942;52.462;10.846;2023-02-08T01:04:29;58.1;;;140.4;;
74483;SDS011;62942;52.462;10.846;2023-02-08T01:05:39;57.7;;;140;;
74483;SDS011;62942;52.462;10.846;2023-02-08T01:06:49;57.4;;;137.5;;
74483;SDS011;62942;52.462;10.846;2023-02-08T01:07:49;57.2;;;136;;
74483;SDS011;62942;52.462;10.846;2023-02-08T01:08:59;56.5;;;133.8;;
74483;SDS011;62942;52.462;10.846;2023-02-08T01:10:09;55.8;;;134.3;;
74483;SDS011;62942;52.462;10.846;2023-02-08T01:11:20;56.5;;;139;;
74483;SDS011;62942;52.462;10.846;2023-02-08T01:12:19;56.4;;;136.5;;
74483;SDS011;62942;52.462;10.846;2023-02-08T01:13:29;57;;;137.9;;
74483;SDS011;62942;52.462;10.846;2023-02-08T01:14:39;57.3;;;139.2;;
74483;SDS011;62942;52.462;10.846;2023-02-08T01:15:39;57.8;;;141.4;;
74483;SDS011;62942;52.462;10.846;2023-02-08T01:16:39;57.3;;;137.9;;
74483;SDS011;62942;52.462;10.846;2023-02-08T01:17:52;57.6;;;136.8;;
74483;SDS011;62942;52.462;10.846;2023-02-08T01:18:50;55.6;;;129.9;;
74483;SDS011;62942;52.462;10.846;2023-02-08T01:19:59;58.1;;;139.8;;
74483;SDS011;62942;52.462;10.846;2023-02-08T01:21:02;56.7;;;137.2;;
74483;SDS011;62942;52.462;10.846;2023-02-08T01:22:09;55.6;;;133.2;;
74483;SDS011;62942;52.462;10.846;2023-02-08T01:23:19;55.8;;;133.4;;
74483;SDS011;62942;52.462;10.846;2023-02-08T01:24:29;55.8;;;132.7;;
74483;SDS011;62942;52.462;10.846;2023-02-08T01:25:39;55.2;;;131.8;;
74483;SDS011;62942;52.462;10.846;2023-02-08T01:26:49;56.9;;;133.4;;
74483;SDS011;62942;52.462;10.846;2023-02-08T01:27:59;56.7;;;138.6;;
74483;SDS011;62942;52.462;10.846;2023-02-08T01:29:09;57.4;;;143.7;;
74483;SDS011;62942;52.462;10.846;2023-02-08T01:30:19;56.9;;;135.6;;
74483;SDS011;62942;52.462;10.846;2023-02-08T01:31:30;56.4;;;133.7;;
74483;SDS011;62942;52.462;10.846;2023-02-08T01:32:29;57.8;;;142.9;;
74483;SDS011;62942;52.462;10.846;2023-02-08T01:33:39;57.2;;;139.4;;
74483;SDS011;62942;52.462;10.846;2023-02-08T01:34:49;57;;;138.1;;
74483;SDS011;62942;52.462;10.846;2023-02-08T01:35:49;57.6;;;138;;
74483;SDS011;62942;52.462;10.846;2023-02-08T01:36:59;58.6;;;142.6;;
74483;SDS011;62942;52.462;10.846;2023-02-08T01:38:09;58.2;;;142.7;;
74483;SDS011;62942;52.462;10.846;2023-02-08T01:39:19;57.6;;;140.9;;
74483;SDS011;62942;52.462;10.846;2023-02-08T01:40:19;59;;;142.1;;
74483;SDS011;62942;52.462;10.846;2023-02-08T01:41:30;58.3;;;139.4;;
74483;SDS011;62942;52.462;10.846;2023-02-08T01:42:39;57.4;;;140.1;;
74483;SDS011;62942;52.462;10.846;2023-02-08T01:43:57;58.3;;;144.8;;
74483;SDS011;62942;52.462;10.846;2023-02-08T01:45:54;60.2;;;149;;
74483;SDS011;62942;52.462;10.846;2023-02-08T01:45:59;59.5;;;145.7;;
74483;SDS011;62942;52.462;10.846;2023-02-08T01:47:09;60.1;;;144.5;;
74483;SDS011;62942;52.462;10.846;2023-02-08T01:48:20;60.7;;;147.4;;
74483;SDS011;62942;52.462;10.846;2023-02-08T01:49:30;59.9;;;150.3;;
74483;SDS011;62942;52.462;10.846;2023-02-08T01:50:42;60.8;;;150.6;;
74483;SDS011;62942;52.462;10.846;2023-02-08T01:51:40;58.9;;;145.3;;
74483;SDS011;62942;52.462;10.846;2023-02-08T01:52:49;60.1;;;148.8;;
74483;SDS011;62942;52.462;10.846;2023-02-08T01:53:49;58.5;;;145;;
74483;SDS011;62942;52.462;10.846;2023-02-08T01:55:00;59.9;;;145.9;;
74483;SDS011;62942;52.462;10.846;2023-02-08T01:56:10;59.5;;;143.2;;
74483;SDS011;62942;52.462;10.846;2023-02-08T01:57:09;60;;;147.2;;
74483;SDS011;62942;52.462;10.846;2023-02-08T01:58:19;60.8;;;151.7;;
74483;SDS011;62942;52.462;10.846;2023-02-08T01:59:31;60.1;;;148.4;;
74483;SDS011;62942;52.462;10.846;2023-02-08T02:00:39;59.7;;;146;;
74483;SDS011;62942;52.462;10.846;2023-02-08T02:01:50;58.4;;;143.8;;
74483;SDS011;62942;52.462;10.846;2023-02-08T02:02:49;59.6;;;145.4;;
74483;SDS011;62942;52.462;10.846;2023-02-08T02:03:59;59.1;;;142.6;;
74483;SDS011;62942;52.462;10.846;2023-02-08T02:05:09;58.8;;;141.9;;
74483;SDS011;62942;52.462;10.846;2023-02-08T02:06:20;57.6;;;137.5;;
74483;SDS011;62942;52.462;10.846;2023-02-08T02:07:19;56.4;;;135.8;;
74483;SDS011;62942;52.462;10.846;2023-02-08T02:08:19;58.7;;;142.6;;
74483;SDS011;62942;52.462;10.846;2023-02-08T02:09:30;58.2;;;141.4;;
74483;SDS011;62942;52.462;10.846;2023-02-08T02:10:40;57.5;;;139.9;;
74483;SDS011;62942;52.462;10.846;2023-02-08T02:11:39;57.8;;;139.9;;
74483;SDS011;62942;52.462;10.846;2023-02-08T02:12:49;56;;;134.2;;
74483;SDS011;62942;52.462;10.846;2023-02-08T02:13:59;57.4;;;135.1;;
74483;SDS011;62942;52.462;10.846;2023-02-08T02:15:09;55.4;;;133.9;;
74483;SDS011;62942;52.462;10.846;2023-02-08T02:16:19;57.1;;;134.8;;
74483;SDS011;62942;52.462;10.846;2023-02-08T02:17:19;58.8;;;147.4;;
74483;SDS011;62942;52.462;10.846;2023-02-08T02:18:29;58.2;;;142.2;;
74483;SDS011;62942;52.462;10.846;2023-02-08T02:19:49;58;;;140.2;;
74483;SDS011;62942;52.462;10.846;2023-02-08T02:20:55;58.5;;;144.9;;
74483;SDS011;62942;52.462;10.846;2023-02-08T02:22:02;59.9;;;147.3;;
74483;SDS011;62942;52.462;10.846;2023-02-08T02:23:07;60.1;;;152.3;;
74483;SDS011;62942;52.462;10.846;2023-02-08T02:24:12;60.9;;;152.3;;
74483;SDS011;62942;52.462;10.846;2023-02-08T02:25:40;60.6;;;153.3;;
74483;SDS011;62942;52.462;10.846;2023-02-08T02:26:34;60.9;;;152.8;;
74483;SDS011;62942;52.462;10.846;2023-02-08T02:27:44;61.6;;;153.4;;
74483;SDS011;62942;52.462;10.846;2023-02-08T02:28:45;61.3;;;149.7;;
74483;SDS011;62942;52.462;10.846;2023-02-08T02:29:55;60.6;;;150.5;;
74483;SDS011;62942;52.462;10.846;2023-02-08T02:31:05;61.8;;;156.5;;
74483;SDS011;62942;52.462;10.846;2023-02-08T02:32:12;59.1;;;146;;
74483;SDS011;62942;52.462;10.846;2023-02-08T02:33:22;61;;;152;;
74483;SDS011;62942;52.462;10.846;2023-02-08T02:34:30;61.4;;;153.8;;
74483;SDS011;62942;52.462;10.846;2023-02-08T02:35:31;61.7;;;158.4;;
74483;SDS011;62942;52.462;10.846;2023-02-08T02:36:32;60.6;;;148.5;;
74483;SDS011;62942;52.462;10.846;2023-02-08T02:37:42;60.4;;;153.2;;
74483;SDS011;62942;52.462;10.846;2023-02-08T02:38:40;60.9;;;152.7;;
74483;SDS011;62942;52.462;10.846;2023-02-08T02:39:41;60.9;;;153.3;;
74483;SDS011;62942;52.462;10.846;2023-02-08T02:40:49;61.8;;;153.8;;
74483;SDS011;62942;52.462;10.846;2023-02-08T02:42:00;61.4;;;151.7;;
74483;SDS011;62942;52.462;10.846;2023-02-08T02:43:00;61.6;;;153.9;;
74483;SDS011;62942;52.462;10.846;2023-02-08T02:44:11;62.3;;;156.7;;
74483;SDS011;62942;52.462;10.846;2023-02-08T02:45:09;62.9;;;149.5;;
74483;SDS011;62942;52.462;10.846;2023-02-08T02:46:21;60.9;;;154.5;;
74483;SDS011;62942;52.462;10.846;2023-02-08T02:47:30;61.2;;;149.8;;
74483;SDS011;62942;52.462;10.846;2023-02-08T02:48:30;59.7;;;146.3;;
74483;SDS011;62942;52.462;10.846;2023-02-08T02:49:42;59.4;;;146.7;;
74483;SDS011;62942;52.462;10.846;2023-02-08T02:50:50;59.5;;;145.4;;
74483;SDS011;62942;52.462;10.846;2023-02-08T02:51:50;60.4;;;145.5;;
74483;SDS011;62942;52.462;10.846;2023-02-08T02:52:59;59;;;145.3;;
74483;SDS011;62942;52.462;10.846;2023-02-08T02:53:59;58.5;;;143.3;;
74483;SDS011;62942;52.462;10.846;2023-02-08T02:55:09;60.2;;;143.3;;
74483;SDS011;62942;52.462;10.846;2023-02-08T02:56:20;59.1;;;146.6;;
74483;SDS011;62942;52.462;10.846;2023-02-08T02:57:29;60.2;;;144.4;;
74483;SDS011;62942;52.462;10.846;2023-02-08T02:58:39;58.5;;;146.4;;
74483;SDS011;62942;52.462;10.846;2023-02-08T02:59:49;59;;;144.6;;
74483;SDS011;62942;52.462;10.846;2023-02-08T03:00:59;58.7;;;146.9;;
74483;SDS011;62942;52.462;10.846;2023-02-08T03:01:59;57.9;;;144.7;;
74483;SDS011;62942;52.462;10.846;2023-02-08T03:02:59;57.7;;;143.3;;
74483;SDS011;62942;52.462;10.846;2023-02-08T03:04:13;58;;;141.1;;
74483;SDS011;62942;52.462;10.846;2023-02-08T03:05:19;58.9;;;147.1;;
74483;SDS011;62942;52.462;10.846;2023-02-08T03:06:21;57.9;;;142;;
74483;SDS011;62942;52.462;10.846;2023-02-08T03:07:34;57.5;;;139.6;;
74483;SDS011;62942;52.462;10.846;2023-02-08T03:08:45;57.8;;;138.5;;
74483;SDS011;62942;52.462;10.846;2023-02-08T03:09:51;56.6;;;137.5;;
74483;SDS011;62942;52.462;10.846;2023-02-08T03:11:03;57.7;;;139.4;;
74483;SDS011;62942;52.462;10.846;2023-02-08T03:12:01;57.2;;;141;;
74483;SDS011;62942;52.462;10.846;2023-02-08T03:13:10;57;;;139.7;;
74483;SDS011;62942;52.462;10.846;2023-02-08T03:14:14;56.9;;;135.6;;
74483;SDS011;62942;52.462;10.846;2023-02-08T03:15:11;56.6;;;135.1;;
74483;SDS011;62942;52.462;10.846;2023-02-08T03:16:19;56.4;;;138.7;;
74483;SDS011;62942;52.462;10.846;2023-02-08T03:17:32;55.8;;;136.5;;
74483;SDS011;62942;52.462;10.846;2023-02-08T03:18:41;56.8;;;138.4;;
74483;SDS011;62942;52.462;10.846;2023-02-08T03:19:51;56.8;;;141.3;;
74483;SDS011;62942;52.462;10.846;2023-02-08T03:21:00;55.7;;;131.6;;
74483;SDS011;62942;52.462;10.846;2023-02-08T03:22:10;56.4;;;137.5;;
74483;SDS011;62942;52.462;10.846;2023-02-08T03:23:20;56;;;137;;
74483;SDS011;62942;52.462;10.846;2023-02-08T03:24:22;55.7;;;135.6;;
74483;SDS011;62942;52.462;10.846;2023-02-08T03:25:31;54.6;;;131.8;;
74483;SDS011;62942;52.462;10.846;2023-02-08T03:26:40;54.6;;;130.7;;
74483;SDS011;62942;52.462;10.846;2023-02-08T03:27:51;55;;;136.2;;
74483;SDS011;62942;52.462;10.846;2023-02-08T03:29:01;54.4;;;131.7;;
74483;SDS011;62942;52.462;10.846;2023-02-08T03:30:09;54.9;;;129;;
74483;SDS011;62942;52.462;10.846;2023-02-08T03:31:21;55.1;;;132.1;;
74483;SDS011;62942;52.462;10.846;2023-02-08T03:32:31;54.1;;;127.7;;
74483;SDS011;62942;52.462;10.846;2023-02-08T03:33:39;53.9;;;127.4;;
74483;SDS011;62942;52.462;10.846;2023-02-08T03:34:50;54.1;;;130.9;;
74483;SDS011;62942;52.462;10.846;2023-02-08T03:36:00;53.6;;;124.6;;
74483;SDS011;62942;52.462;10.846;2023-02-08T03:37:09;54.6;;;131.2;;
74483;SDS011;62942;52.462;10.846;2023-02-08T03:38:20;55.1;;;134.6;;
74483;SDS011;62942;52.462;10.846;2023-02-08T03:39:20;53.8;;;128.5;;
74483;SDS011;62942;52.462;10.846;2023-02-08T03:40:33;52.8;;;126.9;;
74483;SDS011;62942;52.462;10.846;2023-02-08T03:41:29;52.7;;;123.5;;
74483;SDS011;62942;52.462;10.846;2023-02-08T03:42:39;53.2;;;126;;
74483;SDS011;62942;52.462;10.846;2023-02-08T03:43:49;53.7;;;127.8;;
74483;SDS011;62942;52.462;10.846;2023-02-08T03:44:59;53.2;;;125.9;;
74483;SDS011;62942;52.462;10.846;2023-02-08T03:46:10;51.6;;;122.5;;
74483;SDS011;62942;52.462;10.846;2023-02-08T03:47:20;50.8;;;119.4;;
74483;SDS011;62942;52.462;10.846;2023-02-08T03:48:19;53.2;;;125.9;;
74483;SDS011;62942;52.462;10.846;2023-02-08T03:49:30;52.9;;;123.8;;
74483;SDS011;62942;52.462;10.846;2023-02-08T03:50:39;52.3;;;122;;
74483;SDS011;62942;52.462;10.846;2023-02-08T03:51:49;51.3;;;122.8;;
74483;SDS011;62942;52.462;10.846;2023-02-08T03:52:59;51.5;;;120.7;;
74483;SDS011;62942;52.462;10.846;2023-02-08T03:54:09;52.2;;;123.4;;
74483;SDS011;62942;52.462;10.846;2023-02-08T03:55:19;52.4;;;124.2;;
74483;SDS011;62942;52.462;10.846;2023-02-08T03:56:30;50.8;;;120.5;;
74483;SDS011;62942;52.462;10.846;2023-02-08T03:57:39;52.1;;;122.3;;
74483;SDS011;62942;52.462;10.846;2023-02-08T03:58:50;52.4;;;127.3;;
74483;SDS011;62942;52.462;10.846;2023-02-08T03:59:59;52.3;;;126;;
74483;SDS011;62942;52.462;10.846;2023-02-08T04:01:01;52.6;;;128.5;;
74483;SDS011;62942;52.462;10.846;2023-02-08T04:02:01;51.9;;;125.5;;
74483;SDS011;62942;52.462;10.846;2023-02-08T04:03:11;51.9;;;120.9;;
74483;SDS011;62942;52.462;10.846;2023-02-08T04:04:19;51.7;;;123.1;;
74483;SDS011;62942;52.462;10.846;2023-02-08T04:05:29;53.7;;;131.9;;
74483;SDS011;62942;52.462;10.846;2023-02-08T04:06:39;51.7;;;128.5;;
74483;SDS011;62942;52.462;10.846;2023-02-08T04:07:49;52.6;;;129.2;;
74483;SDS011;62942;52.462;10.846;2023-02-08T04:08:59;51.3;;;123.2;;
74483;SDS011;62942;52.462;10.846;2023-02-08T04:10:09;52.1;;;127.4;;
74483;SDS011;62942;52.462;10.846;2023-02-08T04:11:09;52.3;;;129.5;;
74483;SDS011;62942;52.462;10.846;2023-02-08T04:12:19;52.2;;;122.8;;
74483;SDS011;62942;52.462;10.846;2023-02-08T04:13:29;51.8;;;125;;
74483;SDS011;62942;52.462;10.846;2023-02-08T04:14:39;51.7;;;125.8;;
74483;SDS011;62942;52.462;10.846;2023-02-08T04:15:48;51.4;;;122.6;;
74483;SDS011;62942;52.462;10.846;2023-02-08T04:16:49;50.9;;;123.4;;
74483;SDS011;62942;52.462;10.846;2023-02-08T04:17:49;51.4;;;124.3;;
74483;SDS011;62942;52.462;10.846;2023-02-08T04:18:59;51;;;121.7;;
74483;SDS011;62942;52.462;10.846;2023-02-08T04:20:09;51.2;;;122;;
74483;SDS011;62942;52.462;10.846;2023-02-08T04:21:09;49.5;;;117.3;;
74483;SDS011;62942;52.462;10.846;2023-02-08T04:22:19;50.9;;;122.8;;
74483;SDS011;62942;52.462;10.846;2023-02-08T04:23:19;49.4;;;119.7;;
74483;SDS011;62942;52.462;10.846;2023-02-08T04:24:29;50.7;;;121.7;;
74483;SDS011;62942;52.462;10.846;2023-02-08T04:25:39;50.4;;;120.3;;
74483;SDS011;62942;52.462;10.846;2023-02-08T04:26:49;49.3;;;115.3;;
74483;SDS011;62942;52.462;10.846;2023-02-08T04:27:59;50;;;122.1;;
74483;SDS011;62942;52.462;10.846;2023-02-08T04:28:59;49.1;;;116.8;;
74483;SDS011;62942;52.462;10.846;2023-02-08T04:30:09;49.9;;;118.3;;
74483;SDS011;62942;52.462;10.846;2023-02-08T04:31:19;48.7;;;115;;
74483;SDS011;62942;52.462;10.846;2023-02-08T04:32:19;50.2;;;118.4;;
74483;SDS011;62942;52.462;10.846;2023-02-08T04:33:29;50.1;;;119.5;;
74483;SDS011;62942;52.462;10.846;2023-02-08T04:34:39;50.2;;;120.8;;
74483;SDS011;62942;52.462;10.846;2023-02-08T04:35:48;50.4;;;117.6;;
74483;SDS011;62942;52.462;10.846;2023-02-08T04:36:59;49.6;;;117;;
74483;SDS011;62942;52.462;10.846;2023-02-08T04:38:09;49.2;;;119.4;;
74483;SDS011;62942;52.462;10.846;2023-02-08T04:39:08;48.2;;;112.5;;
74483;SDS011;62942;52.462;10.846;2023-02-08T04:40:09;48.6;;;113;;
74483;SDS011;62942;52.462;10.846;2023-02-08T04:41:19;49;;;113.9;;
74483;SDS011;62942;52.462;10.846;2023-02-08T04:42:28;47.9;;;113.9;;
74483;SDS011;62942;52.462;10.846;2023-02-08T04:43:39;48.8;;;114.5;;
74483;SDS011;62942;52.462;10.846;2023-02-08T04:44:48;48.3;;;112.1;;
74483;SDS011;62942;52.462;10.846;2023-02-08T04:45:58;48.1;;;109.9;;
74483;SDS011;62942;52.462;10.846;2023-02-08T04:47:09;48;;;112.3;;
74483;SDS011;62942;52.462;10.846;2023-02-08T04:48:19;48.4;;;111.1;;
74483;SDS011;62942;52.462;10.846;2023-02-08T04:49:29;47.9;;;109.8;;
74483;SDS011;62942;52.462;10.846;2023-02-08T04:50:38;47.6;;;110.5;;
74483;SDS011;62942;52.462;10.846;2023-02-08T04:51:48;47.9;;;108.6;;
74483;SDS011;62942;52.462;10.846;2023-02-08T04:52:48;46.9;;;112.1;;
74483;SDS011;62942;52.462;10.846;2023-02-08T04:53:59;47.1;;;109.8;;
74483;SDS011;62942;52.462;10.846;2023-02-08T04:54:58;47.1;;;111.6;;
74483;SDS011;62942;52.462;10.846;2023-02-08T04:56:08;47.4;;;109.4;;
74483;SDS011;62942;52.462;10.846;2023-02-08T04:57:18;46.4;;;108.1;;
74483;SDS011;62942;52.462;10.846;2023-02-08T04:58:19;48.3;;;112.5;;
74483;SDS011;62942;52.462;10.846;2023-02-08T04:59:28;47.1;;;110.9;;
74483;SDS011;62942;52.462;10.846;2023-02-08T05:00:38;47.7;;;110.3;;
74483;SDS011;62942;52.462;10.846;2023-02-08T05:01:48;46.4;;;108.2;;
74483;SDS011;62942;52.462;10.846;2023-02-08T05:02:58;46;;;108.7;;
74483;SDS011;62942;52.462;10.846;2023-02-08T05:03:58;46.7;;;108.8;;
74483;SDS011;62942;52.462;10.846;2023-02-08T05:05:08;47.4;;;109.4;;
74483;SDS011;62942;52.462;10.846;2023-02-08T05:06:18;47;;;111.9;;
74483;SDS011;62942;52.462;10.846;2023-02-08T05:07:29;46.9;;;108;;
74483;SDS011;62942;52.462;10.846;2023-02-08T05:08:38;47.1;;;108.4;;
74483;SDS011;62942;52.462;10.846;2023-02-08T05:09:48;46.8;;;109.3;;
74483;SDS011;62942;52.462;10.846;2023-02-08T05:10:48;46.6;;;112.5;;
74483;SDS011;62942;52.462;10.846;2023-02-08T05:11:58;45.9;;;109.2;;
74483;SDS011;62942;52.462;10.846;2023-02-08T05:13:08;46.3;;;109.5;;
74483;SDS011;62942;52.462;10.846;2023-02-08T05:14:08;46.5;;;110.1;;
74483;SDS011;62942;52.462;10.846;2023-02-08T05:15:19;46.9;;;110.1;;
74483;SDS011;62942;52.462;10.846;2023-02-08T05:16:29;47.1;;;112.3;;
74483;SDS011;62942;52.462;10.846;2023-02-08T05:17:38;44.8;;;101.5;;
74483;SDS011;62942;52.462;10.846;2023-02-08T05:18:48;45.4;;;103.4;;
74483;SDS011;62942;52.462;10.846;2023-02-08T05:19:58;45;;;104.9;;
74483;SDS011;62942;52.462;10.846;2023-02-08T05:21:08;46.9;;;107.7;;
74483;SDS011;62942;52.462;10.846;2023-02-08T05:22:18;44.6;;;101.9;;
74483;SDS011;62942;52.462;10.846;2023-02-08T05:23:28;44;;;102.3;;
74483;SDS011;62942;52.462;10.846;2023-02-08T05:24:38;45.1;;;103.6;;
74483;SDS011;62942;52.462;10.846;2023-02-08T05:25:38;44.6;;;104.8;;
74483;SDS011;62942;52.462;10.846;2023-02-08T05:26:48;44.1;;;102.9;;
74483;SDS011;62942;52.462;10.846;2023-02-08T05:27:59;44.7;;;104.4;;
74483;SDS011;62942;52.462;10.846;2023-02-08T05:29:08;44.6;;;102.9;;
74483;SDS011;62942;52.462;10.846;2023-02-08T05:30:09;44.5;;;104.3;;
74483;SDS011;62942;52.462;10.846;2023-02-08T05:31:19;44;;;100;;
74483;SDS011;62942;52.462;10.846;2023-02-08T05:32:28;45.5;;;105.8;;
74483;SDS011;62942;52.462;10.846;2023-02-08T05:33:38;42.7;;;97.7;;
74483;SDS011;62942;52.462;10.846;2023-02-08T05:34:48;44.2;;;101.1;;
74483;SDS011;62942;52.462;10.846;2023-02-08T05:35:58;43.8;;;101;;
74483;SDS011;62942;52.462;10.846;2023-02-08T05:37:08;44.5;;;101.4;;
74483;SDS011;62942;52.462;10.846;2023-02-08T05:38:18;44;;;100.4;;
74483;SDS011;62942;52.462;10.846;2023-02-08T05:39:28;42.7;;;97;;
74483;SDS011;62942;52.462;10.846;2023-02-08T05:40:38;42.9;;;98.5;;
74483;SDS011;62942;52.462;10.846;2023-02-08T05:41:38;43.8;;;97.2;;
74483;SDS011;62942;52.462;10.846;2023-02-08T05:42:48;42.4;;;96.7;;
74483;SDS011;62942;52.462;10.846;2023-02-08T05:43:58;43.3;;;100.8;;
74483;SDS011;62942;52.462;10.846;2023-02-08T05:45:08;43.4;;;97.4;;
74483;SDS011;62942;52.462;10.846;2023-02-08T05:46:08;42.5;;;95.7;;
74483;SDS011;62942;52.462;10.846;2023-02-08T05:47:08;43.2;;;100.2;;
74483;SDS011;62942;52.462;10.846;2023-02-08T05:48:18;41.4;;;97;;
74483;SDS011;62942;52.462;10.846;2023-02-08T05:49:28;43.7;;;100.9;;
74483;SDS011;62942;52.462;10.846;2023-02-08T05:50:38;42.9;;;97.5;;
74483;SDS011;62942;52.462;10.846;2023-02-08T05:51:48;44.2;;;102.7;;
74483;SDS011;62942;52.462;10.846;2023-02-08T05:52:58;43.5;;;98.8;;
74483;SDS011;62942;52.462;10.846;2023-02-08T05:54:08;43.2;;;100.9;;
74483;SDS011;62942;52.462;10.846;2023-02-08T05:55:08;43.2;;;100;;
74483;SDS011;62942;52.462;10.846;2023-02-08T05:56:18;43.2;;;101.4;;
74483;SDS011;62942;52.462;10.846;2023-02-08T05:57:18;43.1;;;103.1;;
74483;SDS011;62942;52.462;10.846;2023-02-08T05:58:28;43.8;;;104.5;;
74483;SDS011;62942;52.462;10.846;2023-02-08T05:59:38;44.5;;;104.8;;
74483;SDS011;62942;52.462;10.846;2023-02-08T06:00:48;44.6;;;106.4;;
74483;SDS011;62942;52.462;10.846;2023-02-08T06:01:48;44.1;;;102.4;;
74483;SDS011;62942;52.462;10.846;2023-02-08T06:02:58;43.1;;;100.7;;
74483;SDS011;62942;52.462;10.846;2023-02-08T06:04:08;43.3;;;100.1;;
74483;SDS011;62942;52.462;10.846;2023-02-08T06:05:18;44;;;104;;
74483;SDS011;62942;52.462;10.846;2023-02-08T06:06:28;44.5;;;105.4;;
74483;SDS011;62942;52.462;10.846;2023-02-08T06:07:28;44.9;;;107.4;;
74483;SDS011;62942;52.462;10.846;2023-02-08T06:08:38;45.2;;;108.4;;
74483;SDS011;62942;52.462;10.846;2023-02-08T06:09:48;43;;;100.1;;
74483;SDS011;62942;52.462;10.846;2023-02-08T06:10:58;44.8;;;108.3;;
74483;SDS011;62942;52.462;10.846;2023-02-08T06:12:08;44.3;;;106.7;;
74483;SDS011;62942;52.462;10.846;2023-02-08T06:13:18;44.5;;;104;;
74483;SDS011;62942;52.462;10.846;2023-02-08T06:14:18;44.5;;;106.2;;
74483;SDS011;62942;52.462;10.846;2023-02-08T06:15:28;44.6;;;106.3;;
74483;SDS011;62942;52.462;10.846;2023-02-08T06:16:38;44.6;;;106.3;;
74483;SDS011;62942;52.462;10.846;2023-02-08T06:17:38;45.1;;;105.1;;
74483;SDS011;62942;52.462;10.846;2023-02-08T06:18:48;43.7;;;104.3;;
74483;SDS011;62942;52.462;10.846;2023-02-08T06:19:48;44.7;;;108.4;;
74483;SDS011;62942;52.462;10.846;2023-02-08T06:20:58;44.5;;;106.5;;
74483;SDS011;62942;52.462;10.846;2023-02-08T06:22:08;45.7;;;110.2;;
74483;SDS011;62942;52.462;10.846;2023-02-08T06:23:08;44.5;;;107.3;;
74483;SDS011;62942;52.462;10.846;2023-02-08T06:24:18;45.6;;;111;;
74483;SDS011;62942;52.462;10.846;2023-02-08T06:25:28;46.3;;;113.4;;
74483;SDS011;62942;52.462;10.846;2023-02-08T06:26:28;45.3;;;110.3;;
74483;SDS011;62942;52.462;10.846;2023-02-08T06:27:38;45.9;;;112.1;;
74483;SDS011;62942;52.462;10.846;2023-02-08T06:28:38;45;;;106.2;;
74483;SDS011;62942;52.462;10.846;2023-02-08T06:29:48;44.1;;;104.4;;
74483;SDS011;62942;52.462;10.846;2023-02-08T06:30:58;44.9;;;107;;
74483;SDS011;62942;52.462;10.846;2023-02-08T06:31:58;44.6;;;105.2;;
74483;SDS011;62942;52.462;10.846;2023-02-08T06:32:58;45.7;;;111.4;;
74483;SDS011;62942;52.462;10.846;2023-02-08T06:34:08;45.2;;;108.4;;
74483;SDS011;62942;52.462;10.846;2023-02-08T06:35:18;44.3;;;106;;
74483;SDS011;62942;52.462;10.846;2023-02-08T06:36:18;44.7;;;106.5;;
74483;SDS011;62942;52.462;10.846;2023-02-08T06:37:28;44.8;;;104.4;;